Time;durP1;ratioP1;P1;durP2;ratioP2;P2;SDS_P1;SDS_P2;PMS_P1;PMS_P2;Temp;Humidity;BMP_temperature;BMP_pressure;BME280_temperature;BME280_humidity;BME280_pressure;Samples;Min_cycle;Max_cycle;Signal;HPM_P1;HPM_P2
2023/01/07 00:01:36;;;;;;;5.30;3.15;;;12.20;91.10;;;;;;5076236;28;20029;-79
2023/01/07 00:04:04;;;;;;;5.20;3.30;;;12.30;90.90;;;;;;5057539;28;20056;-78
2023/01/07 00:06:35;;;;;;;6.13;2.92;;;12.20;90.90;;;;;;5075770;28;20103;-79
2023/01/07 00:09:02;;;;;;;4.57;2.90;;;12.20;90.90;;;;;;5075583;28;20078;-79
2023/01/07 00:11:30;;;;;;;5.55;3.38;;;12.20;90.90;;;;;;5074432;28;20020;-79
2023/01/07 00:13:57;;;;;;;5.00;3.20;;;12.20;90.90;;;;;;5075332;28;20103;-78
2023/01/07 00:16:26;;;;;;;5.15;3.42;;;12.30;90.90;;;;;;5074461;28;20480;-78
2023/01/07 00:18:52;;;;;;;5.13;3.33;;;12.20;90.90;;;;;;5074527;28;20054;-78
2023/01/07 00:21:19;;;;;;;4.97;3.13;;;12.20;90.90;;;;;;5075587;28;20025;-79
2023/01/07 00:23:45;;;;;;;5.10;3.28;;;12.20;90.90;;;;;;5075587;28;20553;-79
2023/01/07 00:26:17;;;;;;;5.35;3.35;;;12.20;91.10;;;;;;5075637;28;20032;-79
2023/01/07 00:28:44;;;;;;;5.45;3.28;;;12.20;90.90;;;;;;5075213;28;20484;-78
2023/01/07 00:31:13;;;;;;;5.10;3.17;;;12.20;90.90;;;;;;5075487;28;20036;-79
2023/01/07 00:33:48;;;;;;;5.07;3.15;;;12.20;90.90;;;;;;5074902;28;20017;-79
2023/01/07 00:36:14;;;;;;;5.03;3.03;;;12.20;90.90;;;;;;5073894;28;20028;-79
2023/01/07 00:38:39;;;;;;;5.15;3.35;;;12.20;90.90;;;;;;5073727;28;20024;-78
2023/01/07 00:41:05;;;;;;;5.28;3.10;;;12.20;90.90;;;;;;5073731;28;20021;-78
2023/01/07 00:43:31;;;;;;;4.80;2.92;;;12.20;90.90;;;;;;5074474;28;20517;-79
2023/01/07 00:45:56;;;;;;;5.68;3.33;;;12.20;90.90;;;;;;5074978;28;20028;-79
2023/01/07 00:48:22;;;;;;;5.15;2.95;;;12.20;90.90;;;;;;5075053;28;20028;-81
2023/01/07 00:50:50;;;;;;;5.00;3.22;;;12.20;90.90;;;;;;5076019;28;20025;-77
2023/01/07 00:53:15;;;;;;;5.40;3.30;;;12.20;90.90;;;;;;5072955;28;20089;-79
2023/01/07 00:55:41;;;;;;;5.25;3.50;;;12.20;90.90;;;;;;5072971;28;20020;-79
2023/01/07 00:58:06;;;;;;;4.65;3.10;;;12.20;90.90;;;;;;5073700;28;20029;-79
2023/01/07 01:00:32;;;;;;;4.90;3.05;;;12.20;90.90;;;;;;5074684;28;20688;-79
2023/01/07 01:02:58;;;;;;;4.78;3.20;;;12.10;90.80;;;;;;5074164;28;20502;-79
2023/01/07 01:05:24;;;;;;;4.75;3.08;;;12.20;90.90;;;;;;5073312;28;20066;-79
2023/01/07 01:07:50;;;;;;;4.47;2.88;;;12.20;90.90;;;;;;5074529;28;20052;-77
2023/01/07 01:10:18;;;;;;;4.95;3.22;;;12.20;90.90;;;;;;5072883;28;20075;-79
2023/01/07 01:12:48;;;;;;;6.63;3.28;;;12.20;90.90;;;;;;5072685;28;20049;-78
2023/01/07 01:15:14;;;;;;;5.32;3.33;;;12.20;90.90;;;;;;5072918;28;20025;-78
2023/01/07 01:17:40;;;;;;;5.32;3.20;;;12.20;90.90;;;;;;5073057;28;20033;-79
2023/01/07 01:20:10;;;;;;;5.13;2.90;;;12.20;90.90;;;;;;5072862;28;20028;-78
2023/01/07 01:22:35;;;;;;;4.88;3.05;;;12.20;90.90;;;;;;5071858;28;20399;-78
2023/01/07 01:25:01;;;;;;;5.40;3.45;;;12.20;90.90;;;;;;5072634;28;20025;-78
2023/01/07 01:27:29;;;;;;;4.38;2.95;;;12.20;90.90;;;;;;5074036;28;20434;-79
2023/01/07 01:29:55;;;;;;;5.95;2.78;;;12.20;90.90;;;;;;5072410;28;20036;-78
2023/01/07 01:32:20;;;;;;;4.63;3.05;;;12.20;90.90;;;;;;5073483;28;20021;-77
2023/01/07 01:34:46;;;;;;;4.72;3.08;;;12.20;90.90;;;;;;5072328;28;20043;-79
2023/01/07 01:37:11;;;;;;;4.47;2.83;;;12.20;90.90;;;;;;5074952;28;20025;-80
2023/01/07 01:39:36;;;;;;;4.35;3.00;;;12.20;90.90;;;;;;5073033;28;20017;-78
2023/01/07 01:42:02;;;;;;;4.75;3.03;;;12.20;90.90;;;;;;5073528;28;20697;-77
2023/01/07 01:44:50;;;;;;;4.60;2.75;;;12.20;90.90;;;;;;5072068;28;20070;-78
2023/01/07 01:47:26;;;;;;;4.32;2.92;;;12.30;90.90;;;;;;5072766;28;20379;-79
2023/01/07 01:49:57;;;;;;;4.82;3.25;;;12.20;90.90;;;;;;5073364;28;20033;-79
2023/01/07 01:52:30;;;;;;;4.43;2.87;;;12.20;90.90;;;;;;5073286;28;20108;-78
2023/01/07 01:55:00;;;;;;;4.40;2.95;;;12.20;90.90;;;;;;5073358;28;20013;-77
2023/01/07 01:57:29;;;;;;;5.00;2.75;;;12.20;90.90;;;;;;5073220;28;20056;-78
2023/01/07 01:59:55;;;;;;;5.05;3.05;;;12.30;90.90;;;;;;5071951;28;20031;-78
2023/01/07 02:02:31;;;;;;;4.75;3.30;;;12.20;90.90;;;;;;5071776;28;20557;-77
2023/01/07 02:04:57;;;;;;;4.65;3.10;;;12.20;90.90;;;;;;5072048;28;20025;-79
2023/01/07 02:07:23;;;;;;;5.50;3.10;;;12.30;91.00;;;;;;5071964;28;20024;-76
2023/01/07 02:10:08;;;;;;;4.82;2.92;;;12.20;90.90;;;;;;5071653;28;20024;-78
2023/01/07 02:12:40;;;;;;;4.82;2.97;;;12.20;90.90;;;;;;5073362;28;20028;-78
2023/01/07 02:15:10;;;;;;;4.60;2.80;;;12.20;90.90;;;;;;5072979;28;20019;-79
2023/01/07 02:18:00;;;;;;;4.70;2.83;;;12.20;90.90;;;;;;5071641;28;20021;-78
2023/01/07 02:20:50;;;;;;;3.97;2.67;;;12.20;90.90;;;;;;5072837;28;20396;-77
2023/01/07 02:23:34;;;;;;;4.78;3.20;;;12.20;90.90;;;;;;5071359;28;20028;-78
2023/01/07 02:26:24;;;;;;;14.15;3.72;;;12.20;90.90;;;;;;5073661;28;20028;-78
2023/01/07 02:29:18;;;;;;;4.45;2.80;;;12.20;90.90;;;;;;5073149;28;20086;-79
2023/01/07 02:32:08;;;;;;;4.38;2.88;;;12.20;90.90;;;;;;5072799;28;20036;-79
2023/01/07 02:34:54;;;;;;;4.32;2.63;;;12.20;90.90;;;;;;5071356;28;20025;-79
2023/01/07 02:37:35;;;;;;;4.32;2.80;;;12.30;91.00;;;;;;5071548;28;20127;-78
2023/01/07 02:40:13;;;;;;;3.88;2.30;;;12.20;90.90;;;;;;5073551;28;20028;-79
2023/01/07 02:43:07;;;;;;;4.10;2.63;;;12.20;90.90;;;;;;5072428;28;20402;-76
2023/01/07 02:45:44;;;;;;;3.97;2.70;;;12.20;90.90;;;;;;5071346;28;20107;-77
2023/01/07 02:48:12;;;;;;;4.40;2.90;;;12.20;90.90;;;;;;5071610;28;20024;-79
2023/01/07 02:50:38;;;;;;;4.13;2.72;;;12.20;90.90;;;;;;5072851;28;20060;-78
2023/01/07 02:53:05;;;;;;;3.97;2.63;;;12.20;90.90;;;;;;5072573;28;20052;-79
2023/01/07 02:56:08;;;;;;;4.20;2.70;;;12.20;90.90;;;;;;5071229;28;20028;-77
2023/01/07 02:58:56;;;;;;;4.55;2.67;;;12.20;90.90;;;;;;5072662;28;20476;-77
2023/01/07 03:01:50;;;;;;;4.15;2.72;;;12.20;90.90;;;;;;5072693;28;20132;-78
2023/01/07 03:04:26;;;;;;;3.95;2.47;;;12.20;90.90;;;;;;5070867;28;20029;-79
2023/01/07 03:07:09;;;;;;;4.22;2.65;;;12.20;90.90;;;;;;5073139;28;20052;-79
2023/01/07 03:09:57;;;;;;;4.25;2.42;;;12.20;90.90;;;;;;5072823;28;20032;-78
2023/01/07 03:12:35;;;;;;;3.88;2.53;;;12.20;90.90;;;;;;5070953;28;20078;-78
2023/01/07 03:15:06;;;;;;;4.25;2.70;;;12.20;90.90;;;;;;5071018;28;20016;-78
2023/01/07 03:18:03;;;;;;;4.45;2.67;;;12.20;90.90;;;;;;5071471;28;20013;-79
2023/01/07 03:20:32;;;;;;;4.60;2.78;;;12.20;90.90;;;;;;5071313;28;20025;-78
2023/01/07 03:22:58;;;;;;;3.90;2.40;;;12.20;90.90;;;;;;5072046;28;20112;-78
2023/01/07 03:25:27;;;;;;;4.43;2.80;;;12.30;91.00;;;;;;5072455;28;20103;-79
2023/01/07 03:27:55;;;;;;;4.40;2.60;;;12.20;90.90;;;;;;5072034;28;20040;-78
2023/01/07 03:30:23;;;;;;;4.05;2.58;;;12.20;90.90;;;;;;5073022;28;20032;-80
2023/01/07 03:33:13;;;;;;;4.00;2.50;;;12.20;91.00;;;;;;5072114;28;20028;-79
2023/01/07 03:35:43;;;;;;;3.90;2.50;;;12.20;91.00;;;;;;5068980;28;20071;-79
2023/01/07 03:38:10;;;;;;;3.95;2.35;;;12.20;91.00;;;;;;5055669;28;20029;-79
2023/01/07 03:40:36;;;;;;;4.15;2.67;;;12.20;91.00;;;;;;5066251;28;20566;-79
2023/01/07 03:43:03;;;;;;;3.70;2.33;;;12.20;91.00;;;;;;5071865;28;20021;-78
2023/01/07 03:45:28;;;;;;;3.58;2.40;;;12.20;91.00;;;;;;5073254;28;20028;-79
2023/01/07 03:47:56;;;;;;;3.60;2.30;;;12.20;91.00;;;;;;5076263;28;20033;-79
2023/01/07 03:50:22;;;;;;;3.75;2.35;;;12.20;91.00;;;;;;5075328;28;20028;-79
2023/01/07 03:52:48;;;;;;;4.03;2.58;;;12.30;91.00;;;;;;5075372;28;20023;-78
2023/01/07 03:55:14;;;;;;;3.70;2.40;;;12.20;91.00;;;;;;5074127;28;20055;-79
2023/01/07 03:57:39;;;;;;;4.50;2.45;;;12.20;91.00;;;;;;5074674;28;20055;-79
2023/01/07 04:00:07;;;;;;;3.70;2.08;;;12.20;90.90;;;;;;5074976;28;20078;-79
2023/01/07 04:02:33;;;;;;;3.42;2.20;;;12.20;91.00;;;;;;5073906;28;20055;-78
2023/01/07 04:04:58;;;;;;;3.15;2.20;;;12.20;91.00;;;;;;5075512;28;20040;-78
2023/01/07 04:07:24;;;;;;;3.90;2.40;;;12.20;91.00;;;;;;5075539;28;20032;-78
2023/01/07 04:09:49;;;;;;;3.67;2.38;;;12.20;90.90;;;;;;5074154;28;20024;-78
2023/01/07 04:12:15;;;;;;;3.45;2.10;;;12.30;91.00;;;;;;5074035;28;20024;-79
2023/01/07 04:14:41;;;;;;;4.20;2.40;;;12.20;91.00;;;;;;5073641;28;20021;-79
2023/01/07 04:17:07;;;;;;;3.25;2.15;;;12.20;91.00;;;;;;5075601;28;20013;-77
2023/01/07 04:19:32;;;;;;;3.30;2.03;;;12.20;90.90;;;;;;5075139;28;20488;-78
2023/01/07 04:21:58;;;;;;;3.42;2.15;;;12.20;90.90;;;;;;5073786;28;20539;-78
2023/01/07 04:24:23;;;;;;;4.05;2.15;;;12.20;91.00;;;;;;5074910;28;20034;-77
2023/01/07 04:26:48;;;;;;;3.63;2.30;;;12.20;91.00;;;;;;5075090;28;20056;-79
2023/01/07 04:29:14;;;;;;;3.65;2.13;;;12.20;91.00;;;;;;5073737;28;20115;-78
2023/01/07 04:31:39;;;;;;;3.50;2.15;;;12.20;91.00;;;;;;5073905;28;20028;-78
2023/01/07 04:34:05;;;;;;;3.72;2.00;;;12.20;91.20;;;;;;5074707;28;20074;-79
2023/01/07 04:36:31;;;;;;;2.85;2.05;;;12.20;91.00;;;;;;5073634;28;20021;-79
2023/01/07 04:38:56;;;;;;;3.00;2.00;;;12.20;91.00;;;;;;5073677;28;20025;-79
2023/01/07 04:41:22;;;;;;;3.03;2.00;;;12.20;91.00;;;;;;5074846;28;20037;-78
2023/01/07 04:43:47;;;;;;;3.25;2.03;;;12.20;91.00;;;;;;5074703;28;20429;-79
2023/01/07 04:46:13;;;;;;;4.68;2.13;;;12.20;91.00;;;;;;5074983;28;20032;-79
2023/01/07 04:48:38;;;;;;;3.13;2.00;;;12.20;91.00;;;;;;5074573;28;20030;-79
2023/01/07 04:51:04;;;;;;;3.38;1.95;;;12.20;91.00;;;;;;5074384;28;20511;-78
2023/01/07 04:53:29;;;;;;;2.90;1.80;;;12.20;91.00;;;;;;5074329;28;20100;-78
2023/01/07 04:55:55;;;;;;;3.35;1.90;;;12.20;91.00;;;;;;5072488;28;20155;-79
2023/01/07 04:58:21;;;;;;;3.22;1.90;;;12.20;91.00;;;;;;5076333;28;20017;-78
2023/01/07 05:00:47;;;;;;;3.00;1.88;;;12.20;91.00;;;;;;5073222;28;20370;-79
2023/01/07 05:03:12;;;;;;;3.53;2.20;;;12.20;91.00;;;;;;5074177;28;20028;-78
2023/01/07 05:05:38;;;;;;;3.08;1.90;;;12.20;91.00;;;;;;5074433;28;20025;-79
2023/01/07 05:08:04;;;;;;;2.42;1.80;;;12.20;91.00;;;;;;5072948;28;20036;-78
2023/01/07 05:10:29;;;;;;;3.15;2.00;;;12.20;91.00;;;;;;5074068;28;20032;-78
2023/01/07 05:12:55;;;;;;;4.35;2.00;;;12.20;91.00;;;;;;5074599;28;20028;-77
2023/01/07 05:15:20;;;;;;;2.67;1.83;;;12.20;91.00;;;;;;5073189;28;20054;-78
2023/01/07 05:17:46;;;;;;;2.03;1.48;;;12.20;91.00;;;;;;5073577;28;20119;-78
2023/01/07 05:20:12;;;;;;;2.85;1.75;;;12.20;91.00;;;;;;5073361;28;20020;-78
2023/01/07 05:22:38;;;;;;;2.78;1.80;;;12.20;91.00;;;;;;5072452;28;20388;-78
2023/01/07 05:25:04;;;;;;;4.10;1.98;;;12.20;91.00;;;;;;5072612;28;20024;-79
2023/01/07 05:27:29;;;;;;;2.83;1.80;;;12.20;91.00;;;;;;5072723;28;20103;-78
2023/01/07 05:29:54;;;;;;;3.03;1.80;;;12.20;90.90;;;;;;5072670;28;20024;-77
2023/01/07 05:32:20;;;;;;;3.10;1.80;;;12.20;91.00;;;;;;5064149;28;20040;-77
2023/01/07 05:34:45;;;;;;;2.45;1.60;;;12.20;91.00;;;;;;5052466;28;20049;-79
2023/01/07 05:37:11;;;;;;;2.30;1.50;;;12.20;91.00;;;;;;5063522;28;20478;-79
2023/01/07 05:39:37;;;;;;;2.40;1.60;;;12.20;91.00;;;;;;5073517;28;20117;-79
2023/01/07 05:42:02;;;;;;;2.50;1.58;;;12.20;91.00;;;;;;5072638;28;20029;-77
2023/01/07 05:44:28;;;;;;;2.70;1.90;;;12.20;91.00;;;;;;5072593;28;20032;-77
2023/01/07 05:46:53;;;;;;;5.97;1.80;;;12.20;91.00;;;;;;5070618;28;20773;-72
2023/01/07 05:49:19;;;;;;;2.65;1.67;;;12.20;90.90;;;;;;5069432;28;20480;-76
2023/01/07 05:51:44;;;;;;;2.22;1.52;;;12.20;90.90;;;;;;5068100;28;20032;-75
2023/01/07 05:54:10;;;;;;;2.53;1.70;;;12.20;90.90;;;;;;5068682;28;20420;-76
2023/01/07 05:56:35;;;;;;;2.60;1.60;;;12.20;90.90;;;;;;5069357;28;20043;-75
2023/01/07 05:59:01;;;;;;;3.83;1.83;;;12.20;91.00;;;;;;5069548;28;20086;-78
2023/01/07 06:01:26;;;;;;;2.65;1.70;;;12.20;91.00;;;;;;5064842;28;20396;-76
2023/01/07 06:03:52;;;;;;;2.45;1.63;;;12.20;90.90;;;;;;5068710;28;20040;-76
2023/01/07 06:06:18;;;;;;;2.78;1.60;;;12.20;90.90;;;;;;5067534;28;20024;-76
2023/01/07 06:08:43;;;;;;;2.03;1.35;;;12.20;90.90;;;;;;5068516;28;20440;-77
2023/01/07 06:11:09;;;;;;;3.17;1.60;;;12.20;90.90;;;;;;5067208;28;20040;-76
2023/01/07 06:13:34;;;;;;;4.03;1.67;;;12.20;90.90;;;;;;5067113;28;20423;-76
2023/01/07 06:16:05;;;;;;;2.50;1.60;;;12.20;90.90;;;;;;5045210;28;20082;-76
2023/01/07 06:18:31;;;;;;;1.92;1.40;;;12.20;90.90;;;;;;5047736;28;20025;-77
2023/01/07 06:20:56;;;;;;;2.67;1.50;;;12.20;90.90;;;;;;5047622;28;20047;-75
2023/01/07 06:23:22;;;;;;;2.25;1.50;;;12.20;90.90;;;;;;5048519;28;20090;-76
2023/01/07 06:25:48;;;;;;;1.92;1.33;;;12.20;91.00;;;;;;5048832;28;20126;-76
2023/01/07 06:28:14;;;;;;;2.25;1.50;;;12.20;90.90;;;;;;5047538;28;20036;-78
2023/01/07 06:30:39;;;;;;;2.30;1.60;;;12.20;90.90;;;;;;5062886;28;20024;-75
2023/01/07 06:33:05;;;;;;;2.60;1.65;;;12.20;91.00;;;;;;5068234;28;20025;-76
2023/01/07 06:35:31;;;;;;;2.20;1.50;;;12.20;90.90;;;;;;5052567;28;20021;-76
2023/01/07 06:37:57;;;;;;;2.85;1.30;;;12.20;90.90;;;;;;5048093;28;20373;-76
2023/01/07 06:40:23;;;;;;;2.47;1.60;;;12.20;90.90;;;;;;5047118;28;20024;-76
2023/01/07 06:42:48;;;;;;;2.88;1.60;;;12.20;90.90;;;;;;5046645;28;20024;-76
2023/01/07 06:45:14;;;;;;;3.78;1.60;;;12.20;90.90;;;;;;5046810;28;20079;-75
2023/01/07 06:47:39;;;;;;;2.25;1.50;;;12.20;90.90;;;;;;5048213;28;20052;-75
2023/01/07 06:50:05;;;;;;;2.83;1.77;;;12.20;90.90;;;;;;5048004;28;20553;-76
2023/01/07 06:52:31;;;;;;;1.85;1.38;;;12.20;90.90;;;;;;5047594;28;20033;-75
2023/01/07 06:54:56;;;;;;;2.63;1.40;;;12.20;90.90;;;;;;5047733;28;20025;-78
2023/01/07 06:57:22;;;;;;;2.60;1.60;;;12.20;90.90;;;;;;5048015;28;20029;-77
2023/01/07 06:59:47;;;;;;;1.90;1.30;;;12.20;90.90;;;;;;5048221;28;20112;-77
2023/01/07 07:02:18;;;;;;;1.85;1.33;;;12.20;90.90;;;;;;5047919;28;20029;-75
2023/01/07 07:04:44;;;;;;;1.90;1.30;;;12.20;90.90;;;;;;5048001;28;20033;-76
2023/01/07 07:07:10;;;;;;;2.58;1.55;;;12.20;90.90;;;;;;5046699;28;20539;-76
2023/01/07 07:09:35;;;;;;;1.73;1.20;;;12.20;91.20;;;;;;5047288;28;20035;-76
2023/01/07 07:12:01;;;;;;;2.05;1.30;;;12.20;90.90;;;;;;5048197;28;20493;-76
2023/01/07 07:14:26;;;;;;;1.65;1.25;;;12.20;90.90;;;;;;5059950;28;20062;-76
2023/01/07 07:16:52;;;;;;;1.60;1.20;;;12.20;90.90;;;;;;5068955;28;20499;-75
2023/01/07 07:19:17;;;;;;;2.50;1.48;;;12.20;90.90;;;;;;5067385;28;20040;-76
2023/01/07 07:21:42;;;;;;;2.22;1.40;;;12.20;90.90;;;;;;5071953;28;20102;-75
2023/01/07 07:24:09;;;;;;;1.92;1.35;;;12.20;90.90;;;;;;5071099;28;20029;-77
2023/01/07 07:26:34;;;;;;;1.80;1.33;;;12.20;90.90;;;;;;5070464;28;20024;-76
2023/01/07 07:29:00;;;;;;;1.58;1.15;;;12.20;90.90;;;;;;5071525;28;20457;-77
2023/01/07 07:31:25;;;;;;;1.85;1.30;;;12.20;90.90;;;;;;5069988;28;20036;-77
2023/01/07 07:33:51;;;;;;;1.63;1.20;;;12.20;90.90;;;;;;5071262;28;20039;-75
2023/01/07 07:36:16;;;;;;;1.58;1.27;;;12.20;90.90;;;;;;5054067;28;20021;-76
2023/01/07 07:38:42;;;;;;;2.03;1.38;;;12.20;90.90;;;;;;5051268;28;20033;-75
2023/01/07 07:41:07;;;;;;;1.65;1.10;;;12.20;90.90;;;;;;5051404;28;20032;-76
2023/01/07 07:43:34;;;;;;;1.90;1.30;;;12.20;90.90;;;;;;5049976;28;20029;-75
2023/01/07 07:46:00;;;;;;;2.33;1.30;;;12.20;90.90;;;;;;5050205;28;20063;-77
2023/01/07 07:48:25;;;;;;;2.03;1.30;;;12.20;90.90;;;;;;5050315;28;20127;-78
2023/01/07 07:50:51;;;;;;;1.65;1.33;;;12.10;91.10;;;;;;5050010;28;20089;-76
2023/01/07 07:53:17;;;;;;;1.88;1.25;;;12.20;90.90;;;;;;5049944;28;20362;-76
2023/01/07 07:55:43;;;;;;;2.65;1.40;;;12.20;90.90;;;;;;5050714;28;20024;-76
2023/01/07 07:58:08;;;;;;;1.65;1.30;;;12.20;90.90;;;;;;5051201;28;20025;-76
2023/01/07 08:00:34;;;;;;;1.63;1.20;;;12.20;90.90;;;;;;5049685;28;20032;-78
2023/01/07 08:03:00;;;;;;;2.00;1.30;;;12.20;90.90;;;;;;5049687;28;20068;-76
2023/01/07 08:05:26;;;;;;;1.40;1.05;;;12.20;90.90;;;;;;5050813;28;20380;-75
2023/01/07 08:07:53;;;;;;;5.18;1.67;;;12.20;90.90;;;;;;5051417;28;20166;-75
2023/01/07 08:10:19;;;;;;;1.70;1.25;;;12.20;90.90;;;;;;5064788;28;20056;-76
2023/01/07 08:12:45;;;;;;;1.70;1.17;;;12.20;90.90;;;;;;5069524;28;20073;-78
2023/01/07 08:15:11;;;;;;;1.50;1.10;;;12.20;90.90;;;;;;5069939;28;20454;-75
2023/01/07 08:17:36;;;;;;;1.20;1.00;;;12.20;90.90;;;;;;5071237;28;20025;-75
2023/01/07 08:20:06;;;;;;;1.50;1.20;;;12.20;90.90;;;;;;5070532;28;20511;-78
2023/01/07 08:22:32;;;;;;;1.98;1.15;;;12.20;90.90;;;;;;5069395;28;20384;-77
2023/01/07 08:24:58;;;;;;;2.40;1.17;;;12.20;90.90;;;;;;5069492;28;20025;-76
2023/01/07 08:27:24;;;;;;;1.38;1.10;;;12.20;90.90;;;;;;5070590;28;20120;-78
2023/01/07 08:29:50;;;;;;;2.47;1.20;;;12.20;90.90;;;;;;5070593;28;20117;-79
2023/01/07 08:32:15;;;;;;;1.88;1.17;;;12.20;90.90;;;;;;5070230;28;20120;-76
2023/01/07 08:34:41;;;;;;;1.60;1.20;;;12.20;90.90;;;;;;5067711;28;20028;-76
2023/01/07 08:37:06;;;;;;;1.92;1.27;;;12.20;91.00;;;;;;5069249;28;20070;-76
2023/01/07 08:39:31;;;;;;;2.20;1.10;;;12.20;91.00;;;;;;5068961;28;20067;-76
2023/01/07 08:41:57;;;;;;;2.92;1.30;;;12.20;91.00;;;;;;5069106;28;20507;-75
2023/01/07 08:44:22;;;;;;;2.63;1.10;;;12.20;91.00;;;;;;5067377;28;20174;-76
2023/01/07 08:46:48;;;;;;;2.13;1.40;;;12.20;90.90;;;;;;5067926;28;20047;-75
2023/01/07 08:49:13;;;;;;;1.73;1.15;;;12.20;90.90;;;;;;5067911;28;20115;-76
2023/01/07 08:51:39;;;;;;;1.98;1.20;;;12.20;91.00;;;;;;5068809;28;20032;-77
2023/01/07 08:54:04;;;;;;;1.90;1.00;;;12.20;90.90;;;;;;5068468;28;20024;-75
2023/01/07 08:56:32;;;;;;;2.35;1.30;;;12.20;90.90;;;;;;5068382;28;20036;-76
2023/01/07 08:58:58;;;;;;;1.50;1.10;;;12.20;90.90;;;;;;5067407;28;20107;-77
2023/01/07 09:01:23;;;;;;;1.10;0.90;;;12.20;90.90;;;;;;5068599;28;20115;-77
2023/01/07 09:03:49;;;;;;;1.85;1.30;;;12.20;90.90;;;;;;5067303;28;20090;-74
2023/01/07 09:06:14;;;;;;;2.05;1.05;;;12.20;90.90;;;;;;5068585;28;20029;-77
2023/01/07 09:08:40;;;;;;;1.77;1.10;;;12.20;90.90;;;;;;5067571;28;20058;-76
2023/01/07 09:11:05;;;;;;;2.40;1.20;;;12.10;90.90;;;;;;5066848;28;20040;-75
2023/01/07 09:13:31;;;;;;;1.40;1.05;;;12.10;90.90;;;;;;5068204;28;20033;-76
2023/01/07 09:15:56;;;;;;;1.77;1.20;;;12.20;90.90;;;;;;5068445;28;20047;-77
2023/01/07 09:18:21;;;;;;;2.63;1.10;;;12.20;90.90;;;;;;5067410;28;20028;-77
2023/01/07 09:20:47;;;;;;;1.35;1.00;;;12.20;91.10;;;;;;5068719;28;20043;-77
2023/01/07 09:23:14;;;;;;;1.65;1.13;;;12.20;90.90;;;;;;5068077;28;20032;-75
2023/01/07 09:25:39;;;;;;;1.58;1.17;;;12.20;90.90;;;;;;5067164;28;20039;-78
2023/01/07 09:28:05;;;;;;;2.85;1.20;;;12.20;90.90;;;;;;5068714;28;20115;-76
2023/01/07 09:30:30;;;;;;;2.03;1.20;;;12.20;90.90;;;;;;5067086;28;20020;-75
2023/01/07 09:32:56;;;;;;;1.67;1.10;;;12.20;90.90;;;;;;5068005;28;20441;-75
2023/01/07 09:35:21;;;;;;;1.80;1.30;;;12.20;90.90;;;;;;5068180;28;20098;-75
2023/01/07 09:37:47;;;;;;;1.70;1.13;;;12.20;90.90;;;;;;5068185;28;20030;-77
2023/01/07 09:40:31;;;;;;;1.25;1.00;;;12.20;90.90;;;;;;5068121;28;20029;-74
2023/01/07 09:42:59;;;;;;;1.50;0.98;;;12.20;90.90;;;;;;5066005;28;20020;-75
2023/01/07 09:45:33;;;;;;;2.00;1.30;;;12.20;90.90;;;;;;5068145;28;20025;-75
2023/01/07 09:48:01;;;;;;;1.83;1.30;;;12.30;90.90;;;;;;5067890;28;20513;-74
2023/01/07 09:50:35;;;;;;;1.95;1.20;;;12.20;90.90;;;;;;5055695;28;20037;-81
2023/01/07 09:53:06;;;;;;;1.30;0.98;;;12.20;90.90;;;;;;5046584;28;20029;-75
2023/01/07 09:55:38;;;;;;;1.40;1.00;;;12.20;90.90;;;;;;5048498;28;20083;-80
2023/01/07 09:58:04;;;;;;;1.60;1.10;;;12.20;90.90;;;;;;5048603;28;20432;-75
2023/01/07 10:00:33;;;;;;;1.30;1.00;;;12.20;90.90;;;;;;5048883;28;20037;-75
2023/01/07 10:03:24;;;;;;;1.65;1.02;;;12.20;90.80;;;;;;5047574;28;20029;-75
2023/01/07 10:05:49;;;;;;;;;;;12.20;90.90;;;;;;5052674;28;20036;-76
2023/01/07 10:08:27;;;;;;;1.50;1.00;;;12.20;90.80;;;;;;5047455;28;20290;-78
2023/01/07 10:11:20;;;;;;;1.55;1.10;;;12.20;90.90;;;;;;5067708;28;20033;-85
2023/01/07 10:13:45;;;;;;;1.35;1.02;;;12.20;90.80;;;;;;5068608;28;20024;-76
2023/01/07 10:16:34;;;;;;;1.63;0.93;;;12.30;90.90;;;;;;5068634;28;20026;-77
2023/01/07 10:19:16;;;;;;;1.00;0.90;;;12.20;90.80;;;;;;5068494;28;20025;-78
2023/01/07 10:21:52;;;;;;;1.30;1.00;;;12.20;90.80;;;;;;5068673;28;20033;-76
2023/01/07 10:24:27;;;;;;;1.25;0.90;;;12.20;90.80;;;;;;5066868;28;20042;-73
2023/01/07 10:27:03;;;;;;;1.65;0.98;;;12.20;90.80;;;;;;5068083;28;20060;-76
2023/01/07 10:29:49;;;;;;;10.85;2.60;;;12.20;90.80;;;;;;5067004;28;20036;-77
2023/01/07 10:32:18;;;;;;;1.33;1.00;;;12.20;90.80;;;;;;5051594;28;20033;-77
2023/01/07 10:34:57;;;;;;;1.60;1.05;;;12.20;90.80;;;;;;5063867;28;20029;-76
2023/01/07 10:37:32;;;;;;;1.30;1.00;;;12.20;90.80;;;;;;5048837;28;20024;-75
2023/01/07 10:40:19;;;;;;;1.73;1.15;;;12.20;90.80;;;;;;5048348;28;20029;-75
2023/01/07 10:43:08;;;;;;;1.23;0.90;;;12.20;90.80;;;;;;5047383;28;20025;-78
2023/01/07 10:45:42;;;;;;;1.55;0.90;;;12.20;90.80;;;;;;5046978;28;20025;-74
2023/01/07 10:48:10;;;;;;;1.83;1.20;;;12.20;90.80;;;;;;5049014;28;20036;-74
2023/01/07 10:50:48;;;;;;;1.30;0.90;;;12.20;90.80;;;;;;5048589;28;20477;-80
2023/01/07 10:53:24;;;;;;;1.40;0.90;;;12.20;90.80;;;;;;5048151;28;20017;-77
2023/01/07 10:56:08;;;;;;;0.90;0.80;;;12.30;91.00;;;;;;5051803;28;20036;-76
2023/01/07 10:58:39;;;;;;;0.93;0.77;;;12.20;90.80;;;;;;5051692;28;20035;-76
2023/01/07 11:01:06;;;;;;;0.88;0.70;;;12.20;90.80;;;;;;5052057;28;20029;-76
2023/01/07 11:03:32;;;;;;;1.30;0.95;;;12.20;90.80;;;;;;5051956;28;20047;-77
2023/01/07 11:06:04;;;;;;;1.27;0.88;;;12.20;90.80;;;;;;5051463;28;20103;-78
2023/01/07 11:08:39;;;;;;;1.20;0.90;;;12.20;90.80;;;;;;5052915;28;20025;-75
2023/01/07 11:11:10;;;;;;;1.38;0.90;;;12.20;90.80;;;;;;5053801;28;20067;-76
2023/01/07 11:13:40;;;;;;;1.27;0.90;;;12.20;90.80;;;;;;5050371;28;20028;-77
2023/01/07 11:16:16;;;;;;;1.30;0.90;;;12.20;90.80;;;;;;5050499;28;20021;-77
2023/01/07 11:19:02;;;;;;;1.55;0.90;;;12.20;90.80;;;;;;5051212;28;20017;-77
2023/01/07 11:21:46;;;;;;;5.00;1.00;;;12.30;90.80;;;;;;5052701;28;20093;-77
2023/01/07 11:24:44;;;;;;;5.55;1.00;;;12.20;90.70;;;;;;5054982;28;20156;-77
2023/01/07 11:27:16;;;;;;;6.93;1.58;;;12.20;90.70;;;;;;5021596;28;20041;-76
2023/01/07 11:29:54;;;;;;;;;;;12.30;90.60;;;;;;5054164;28;20025;-78
2023/01/07 11:32:26;;;;;;;5.72;1.27;;;12.30;90.50;;;;;;5053541;28;19912;-78
2023/01/07 11:35:05;;;;;;;8.43;1.25;;;12.30;90.60;;;;;;5052380;28;20025;-78
2023/01/07 11:37:37;;;;;;;7.97;1.40;;;12.30;90.60;;;;;;5053918;28;20043;-77
2023/01/07 11:40:24;;;;;;;6.00;1.40;;;12.30;90.60;;;;;;5053367;28;20024;-77
2023/01/07 11:43:19;;;;;;;4.78;1.38;;;12.40;90.60;;;;;;5054056;28;20584;-78
2023/01/07 11:45:58;;;;;;;4.10;1.23;;;12.40;90.50;;;;;;5053451;28;20060;-78
2023/01/07 11:48:23;;;;;;;3.40;1.10;;;12.40;90.50;;;;;;5051763;28;20044;-75
2023/01/07 11:50:52;;;;;;;4.05;1.30;;;12.50;90.60;;;;;;5051122;28;20740;-75
2023/01/07 11:53:17;;;;;;;3.65;1.23;;;12.50;90.70;;;;;;5050776;28;20033;-77
2023/01/07 11:55:58;;;;;;;6.05;1.40;;;12.50;90.70;;;;;;5050888;28;20048;-75
2023/01/07 11:58:26;;;;;;;;;;;12.60;90.70;;;;;;5050199;28;20021;-76
2023/01/07 12:01:03;;;;;;;5.32;1.25;;;12.60;90.90;;;;;;5050357;28;20293;-76
2023/01/07 12:03:29;;;;;;;3.42;1.20;;;12.70;90.90;;;;;;5051282;28;20028;-77
2023/01/07 12:05:57;;;;;;;5.47;1.30;;;12.70;91.00;;;;;;5052517;28;20393;-78
2023/01/07 12:08:25;;;;;;;9.48;1.70;;;12.70;91.10;;;;;;5051239;28;20581;-78
2023/01/07 12:10:56;;;;;;;6.03;1.40;;;12.80;91.30;;;;;;5051875;28;20025;-77
2023/01/07 12:13:26;;;;;;;5.65;1.35;;;12.90;91.60;;;;;;5050072;28;20032;-76
2023/01/07 12:15:56;;;;;;;7.22;1.60;;;13.00;91.70;;;;;;5051456;28;20409;-77
2023/01/07 12:18:40;;;;;;;9.07;1.48;;;13.10;91.70;;;;;;5051432;28;20027;-76
2023/01/07 12:21:24;;;;;;;8.77;1.45;;;13.20;92.00;;;;;;5050242;28;20059;-77
2023/01/07 12:24:09;;;;;;;6.43;1.65;;;13.20;91.60;;;;;;5051405;28;21143;-77
2023/01/07 12:26:48;;;;;;;11.18;2.00;;;13.30;91.80;;;;;;5053461;28;20033;-78
2023/01/07 12:29:43;;;;;;;7.18;1.63;;;13.40;91.70;;;;;;5049716;28;20402;-78
2023/01/07 12:32:28;;;;;;;6.80;1.50;;;13.40;91.80;;;;;;5043406;28;20539;-77
2023/01/07 12:35:02;;;;;;;8.90;1.88;;;13.50;91.40;;;;;;5050751;28;20123;-79
2023/01/07 12:37:36;;;;;;;8.35;1.70;;;13.60;91.30;;;;;;5051077;28;20031;-78
2023/01/07 12:40:06;;;;;;;8.82;1.73;;;13.70;91.00;;;;;;5073041;28;20052;-76
2023/01/07 12:42:38;;;;;;;8.65;1.98;;;13.80;91.00;;;;;;5072386;28;20550;-75
2023/01/07 12:45:27;;;;;;;6.03;1.40;;;13.90;90.70;;;;;;5072144;28;20034;-78
2023/01/07 12:48:01;;;;;;;5.95;1.77;;;13.90;90.40;;;;;;5076474;28;20066;-79
2023/01/07 12:50:33;;;;;;;5.60;1.77;;;13.90;90.40;;;;;;5079027;28;20025;-79
2023/01/07 12:53:27;;;;;;;7.10;1.58;;;13.70;90.30;;;;;;5069345;28;20508;-80
2023/01/07 12:56:14;;;;;;;6.25;1.50;;;13.70;90.50;;;;;;5075015;28;20033;-75
2023/01/07 12:58:45;;;;;;;4.97;1.50;;;13.70;90.50;;;;;;5072327;28;20031;-74
2023/01/07 13:01:18;;;;;;;5.75;1.40;;;13.70;90.40;;;;;;5059956;28;20413;-76
2023/01/07 13:04:28;;;;;;;6.75;1.70;;;13.60;90.20;;;;;;5070081;28;20493;-76